createdAt,value
2023-04-24T00:00:06.673Z,2.60
2023-04-24T00:02:39.462Z,2.85
2023-04-24T00:05:11.332Z,3.03
2023-04-24T00:07:42.106Z,3.13
2023-04-24T00:10:14.288Z,2.45
2023-04-24T00:12:47.784Z,2.08
2023-04-24T00:15:18.690Z,2.30
2023-04-24T00:17:49.589Z,2.30
2023-04-24T00:20:20.510Z,2.00
2023-04-24T00:22:51.403Z,2.35
2023-04-24T00:25:22.302Z,2.10
2023-04-24T00:27:55.788Z,2.20
2023-04-24T00:30:26.815Z,2.50
2023-04-24T00:32:57.657Z,2.65
2023-04-24T00:35:28.527Z,2.25
2023-04-24T00:37:59.442Z,2.58
2023-04-24T00:40:31.136Z,2.10
2023-04-24T00:43:04.881Z,2.20
2023-04-24T00:45:35.884Z,2.30
2023-04-24T00:48:07.020Z,2.50
2023-04-24T00:50:39.899Z,2.17
2023-04-24T00:53:10.733Z,2.38
2023-04-24T00:55:42.179Z,2.92
2023-04-24T00:58:16.500Z,3.35
2023-04-24T01:00:48.548Z,3.40
2023-04-24T01:03:19.909Z,4.03
2023-04-24T01:05:51.717Z,3.25
2023-04-24T01:08:23.209Z,2.83
2023-04-24T01:10:55.826Z,2.60
2023-04-24T01:13:29.268Z,2.90
2023-04-24T01:16:00.610Z,2.83
2023-04-24T01:18:31.999Z,3.45
2023-04-24T01:21:06.931Z,3.30
2023-04-24T01:23:40.330Z,2.80
2023-04-24T01:26:11.565Z,2.92
2023-04-24T01:28:42.852Z,2.70
2023-04-24T01:31:13.846Z,2.35
2023-04-24T01:33:46.036Z,2.72
2023-04-24T01:36:17.753Z,2.88
2023-04-24T01:38:51.377Z,2.97
2023-04-24T01:41:23.584Z,2.75
2023-04-24T01:43:56.493Z,3.10
2023-04-24T01:46:28.145Z,3.45
2023-04-24T01:48:59.434Z,3.22
2023-04-24T01:51:30.402Z,3.13
2023-04-24T01:54:04.115Z,2.92
2023-04-24T01:56:37.521Z,3.17
2023-04-24T01:59:08.874Z,3.22
2023-04-24T02:01:40.293Z,2.95
2023-04-24T02:04:12.133Z,3.85
2023-04-24T02:06:43.124Z,3.10
2023-04-24T02:09:16.504Z,3.78
2023-04-24T02:11:47.344Z,3.30
2023-04-24T02:14:18.221Z,3.17
2023-04-24T02:16:49.424Z,3.20
2023-04-24T02:19:20.297Z,3.35
2023-04-24T02:21:51.111Z,3.50
2023-04-24T02:24:24.630Z,3.20
2023-04-24T02:26:55.552Z,3.10
2023-04-24T02:29:26.378Z,3.67
2023-04-24T02:31:57.225Z,3.95
2023-04-24T02:34:28.049Z,3.70
2023-04-24T02:36:58.961Z,3.10
2023-04-24T02:39:32.450Z,3.30
2023-04-24T02:42:03.354Z,2.97
2023-04-24T02:44:35.012Z,3.67
2023-04-24T02:47:05.787Z,3.10
2023-04-24T02:49:36.630Z,3.28
2023-04-24T02:52:07.500Z,3.63
2023-04-24T02:54:40.978Z,3.38
2023-04-24T02:57:11.912Z,3.65
2023-04-24T02:59:45.849Z,3.22
2023-04-24T03:02:16.736Z,3.22
2023-04-24T03:04:49.124Z,3.22
2023-04-24T03:07:22.017Z,3.38
2023-04-24T03:09:55.649Z,4.25
2023-04-24T03:12:26.514Z,3.05
2023-04-24T03:14:57.535Z,3.47
2023-04-24T03:17:28.590Z,3.60
2023-04-24T03:19:59.474Z,4.05
2023-04-24T03:22:30.384Z,3.13
2023-04-24T03:25:04.089Z,3.45
2023-04-24T03:27:35.349Z,3.70
2023-04-24T03:30:12.081Z,3.55
2023-04-24T03:33:03.943Z,3.45
2023-04-24T03:35:38.316Z,3.10
2023-04-24T03:38:13.411Z,3.70
2023-04-24T03:40:49.562Z,3.63
2023-04-24T03:43:39.238Z,3.13
2023-04-24T03:46:11.188Z,3.38
2023-04-24T03:48:50.527Z,3.28
2023-04-24T03:51:24.172Z,3.42
2023-04-24T03:53:58.581Z,3.20
2023-04-24T03:56:35.621Z,3.25
2023-04-24T03:59:07.092Z,2.78
2023-04-24T04:01:43.443Z,2.75
2023-04-24T04:04:21.761Z,3.00
2023-04-24T04:06:53.463Z,3.05
2023-04-24T04:09:24.941Z,2.80
2023-04-24T04:11:58.434Z,3.13
2023-04-24T04:14:29.474Z,2.80
2023-04-24T04:17:00.340Z,3.60
2023-04-24T04:19:32.207Z,3.60
2023-04-24T04:22:03.654Z,2.53
2023-04-24T04:24:48.320Z,3.05
2023-04-24T04:27:22.671Z,2.88
2023-04-24T04:30:07.284Z,2.75
2023-04-24T04:32:46.351Z,2.47
2023-04-24T04:35:17.940Z,2.95
2023-04-24T04:37:49.196Z,2.58
2023-04-24T04:40:31.474Z,2.83
2023-04-24T04:45:47.280Z,2.45
2023-04-24T04:48:38.665Z,2.47
2023-04-24T04:51:11.573Z,2.50
2023-04-24T04:53:42.459Z,2.50
2023-04-24T04:56:13.309Z,2.55
2023-04-24T04:58:48.888Z,3.25
2023-04-24T05:01:21.501Z,2.53
2023-04-24T05:03:54.251Z,2.50
2023-04-24T05:06:25.642Z,2.65
2023-04-24T05:08:58.569Z,2.80
2023-04-24T05:14:30.270Z,2.58
2023-04-24T05:17:01.598Z,2.60
2023-04-24T05:19:34.288Z,2.90
2023-04-24T05:22:06.425Z,2.40
2023-04-24T05:24:39.860Z,2.47
2023-04-24T05:27:29.462Z,2.78
2023-04-24T05:30:03.630Z,2.47
2023-04-24T05:32:34.686Z,2.50
2023-04-24T05:35:05.572Z,2.75
2023-04-24T05:37:36.371Z,2.47
2023-04-24T05:40:08.495Z,2.38
2023-04-24T05:42:39.356Z,2.33
2023-04-24T05:45:17.931Z,2.75
2023-04-24T05:47:48.946Z,2.72
2023-04-24T05:50:20.239Z,2.30
2023-04-24T05:52:51.404Z,2.58
2023-04-24T05:55:29.369Z,2.40
2023-04-24T05:58:01.153Z,2.88
2023-04-24T06:00:35.066Z,3.03
2023-04-24T06:03:11.310Z,3.15
2023-04-24T06:05:42.391Z,4.25
2023-04-24T06:08:13.708Z,3.65
2023-04-24T06:10:47.241Z,2.97
2023-04-24T06:13:18.113Z,3.13
2023-04-24T06:16:07.841Z,3.47
2023-04-24T06:18:42.377Z,3.00
2023-04-24T06:21:13.632Z,4.05
2023-04-24T06:23:44.429Z,3.72
2023-04-24T06:26:15.246Z,3.72
2023-04-24T06:28:46.042Z,2.78
2023-04-24T06:31:19.476Z,2.88
2023-04-24T06:33:50.748Z,2.95
2023-04-24T06:36:21.900Z,3.08
2023-04-24T06:38:52.807Z,2.60
2023-04-24T06:41:23.679Z,4.43
2023-04-24T06:43:54.522Z,3.05
2023-04-24T06:46:29.196Z,2.92
2023-04-24T06:49:00.201Z,2.38
2023-04-24T06:51:34.075Z,3.10
2023-04-24T06:54:04.872Z,2.78
2023-04-24T06:56:35.797Z,3.03
2023-04-24T06:59:06.679Z,3.13
2023-04-24T07:01:40.259Z,3.10
2023-04-24T07:04:11.275Z,2.78
2023-04-24T07:06:42.302Z,3.30
2023-04-24T07:09:14.856Z,2.85
2023-04-24T07:11:46.016Z,2.58
2023-04-24T07:14:16.942Z,2.42
2023-04-24T07:16:50.805Z,3.35
2023-04-24T07:19:21.734Z,2.65
2023-04-24T07:21:52.594Z,3.03
2023-04-24T07:24:24.869Z,2.80
2023-04-24T07:26:58.234Z,3.22
2023-04-24T07:29:29.075Z,2.40
2023-04-24T07:32:04.265Z,3.08
2023-04-24T07:34:35.364Z,2.67
2023-04-24T07:37:06.945Z,2.60
2023-04-24T07:39:37.738Z,3.00
2023-04-24T07:42:08.581Z,2.70
2023-04-24T07:44:39.358Z,2.30
2023-04-24T07:47:13.090Z,2.70
2023-04-24T07:49:44.185Z,2.13
2023-04-24T07:52:15.374Z,3.13
2023-04-24T07:54:46.900Z,2.47
2023-04-24T07:57:18.224Z,1.67
2023-04-24T07:59:49.234Z,2.40
2023-04-24T08:02:27.778Z,2.42
2023-04-24T08:05:00.402Z,2.15
2023-04-24T08:07:31.511Z,2.03
2023-04-24T08:10:02.475Z,1.48
2023-04-24T08:12:33.654Z,2.15
2023-04-24T08:15:04.639Z,1.83
2023-04-24T08:17:38.774Z,2.35
2023-04-24T08:20:14.803Z,2.38
2023-04-24T08:22:48.808Z,1.93
2023-04-24T08:25:20.497Z,2.03
2023-04-24T08:27:51.434Z,1.75
2023-04-24T08:30:22.738Z,2.17
2023-04-24T08:32:56.139Z,2.10
2023-04-24T08:35:27.216Z,2.30
2023-04-24T08:37:58.159Z,1.80
2023-04-24T08:40:33.060Z,1.98
2023-04-24T08:43:04.112Z,2.13
2023-04-24T08:45:36.941Z,2.13
2023-04-24T08:48:23.351Z,1.55
2023-04-24T08:50:59.880Z,1.98
2023-04-24T08:53:31.490Z,2.25
2023-04-24T08:56:02.586Z,2.38
2023-04-24T08:58:34.655Z,2.17
2023-04-24T09:01:06.080Z,2.10
2023-04-24T09:03:40.262Z,2.28
2023-04-24T09:06:12.426Z,1.95
2023-04-24T09:08:46.702Z,2.30
2023-04-24T09:11:17.602Z,1.98
2023-04-24T09:13:49.428Z,2.53
2023-04-24T09:16:20.293Z,2.38
2023-04-24T09:18:53.840Z,2.38
2023-04-24T09:21:26.061Z,2.08
2023-04-24T09:24:04.721Z,3.15
2023-04-24T09:26:36.696Z,1.88
2023-04-24T09:29:09.091Z,2.05
2023-04-24T09:31:40.025Z,2.03
2023-04-24T09:34:13.619Z,2.53
2023-04-24T09:36:46.717Z,2.47
2023-04-24T09:39:21.157Z,2.20
2023-04-24T09:41:53.159Z,1.80
2023-04-24T09:44:26.036Z,2.03
2023-04-24T09:46:58.720Z,1.73
2023-04-24T09:49:34.598Z,2.10
2023-04-24T09:52:09.494Z,1.80
2023-04-24T09:54:41.316Z,2.13
2023-04-24T09:57:13.202Z,2.13
2023-04-24T09:59:49.625Z,2.15
2023-04-24T10:02:22.351Z,2.60
2023-04-24T10:05:02.146Z,2.17
2023-04-24T10:07:33.128Z,2.00
2023-04-24T10:10:04.744Z,1.90
2023-04-24T10:12:36.164Z,2.20
2023-04-24T10:15:08.071Z,2.30
2023-04-24T10:17:39.800Z,2.42
2023-04-24T10:20:14.633Z,1.55
2023-04-24T10:22:47.422Z,1.95
2023-04-24T10:25:19.156Z,2.08
2023-04-24T10:27:51.163Z,2.28
2023-04-24T10:30:23.209Z,2.42
2023-04-24T10:32:54.165Z,2.20
2023-04-24T10:35:28.557Z,2.33
2023-04-24T10:38:02.486Z,2.00
2023-04-24T10:40:37.306Z,2.35
2023-04-24T10:43:11.721Z,2.10
2023-04-24T10:45:43.303Z,2.20
2023-04-24T10:48:15.229Z,1.80
2023-04-24T10:50:57.370Z,2.08
2023-04-24T10:53:31.478Z,2.53
2023-04-24T10:56:06.746Z,2.33
2023-04-24T10:58:44.775Z,2.00
2023-04-24T11:01:29.492Z,2.55
2023-04-24T11:04:03.509Z,2.38
2023-04-24T11:06:38.733Z,2.35
2023-04-24T11:09:11.253Z,2.67
2023-04-24T11:11:48.371Z,2.47
2023-04-24T11:14:19.884Z,2.92
2023-04-24T11:16:57.545Z,2.47
2023-04-24T11:19:30.301Z,2.10
2023-04-24T11:22:06.201Z,1.80
2023-04-24T11:24:43.261Z,2.93
2023-04-24T11:27:23.170Z,2.35
2023-04-24T11:30:04.616Z,1.80
2023-04-24T11:32:40.418Z,2.65
2023-04-24T11:35:18.862Z,2.42
2023-04-24T11:38:18.719Z,1.92
2023-04-24T11:40:44.595Z,2.35
2023-04-24T11:43:16.751Z,2.25
2023-04-24T11:45:52.916Z,2.22
2023-04-24T11:48:24.960Z,2.13
2023-04-24T11:50:55.998Z,2.08
2023-04-24T11:53:29.563Z,2.10
2023-04-24T11:56:00.788Z,2.53
2023-04-24T11:58:31.647Z,1.95
2023-04-24T12:01:02.652Z,2.17
2023-04-24T12:03:33.612Z,1.85
2023-04-24T12:06:11.860Z,1.95
2023-04-24T12:08:45.473Z,2.17
2023-04-24T12:11:20.104Z,1.95
2023-04-24T12:13:51.061Z,1.70
2023-04-24T12:16:21.984Z,2.30
2023-04-24T12:18:56.904Z,2.55
2023-04-24T12:21:31.620Z,1.90
2023-04-24T12:24:05.112Z,2.22
2023-04-24T12:26:36.155Z,2.05
2023-04-24T12:29:09.439Z,1.98
2023-04-24T12:31:40.330Z,2.05
2023-04-24T12:34:22.585Z,1.85
2023-04-24T12:36:53.545Z,1.92
2023-04-24T12:39:28.019Z,1.85
2023-04-24T12:42:02.572Z,1.50
2023-04-24T12:44:38.324Z,1.90
2023-04-24T12:47:09.127Z,1.60
2023-04-24T12:49:39.950Z,1.40
2023-04-24T12:52:11.000Z,1.98
2023-04-24T12:54:45.513Z,1.65
2023-04-24T12:57:16.536Z,1.50
2023-04-24T12:59:47.673Z,1.65
2023-04-24T13:02:18.908Z,1.90
2023-04-24T13:04:50.467Z,1.67
2023-04-24T13:07:21.633Z,1.65
2023-04-24T13:09:55.749Z,1.85
2023-04-24T13:12:27.910Z,1.40
2023-04-24T13:14:58.809Z,1.80
2023-04-24T13:17:29.753Z,2.10
2023-04-24T13:20:00.760Z,1.80
2023-04-24T13:22:31.655Z,1.50
2023-04-24T13:25:08.556Z,1.60
2023-04-24T13:30:11.925Z,1.40
2023-04-24T13:32:42.862Z,1.50
2023-04-24T13:35:14.229Z,1.85
2023-04-24T13:37:45.131Z,1.58
2023-04-24T13:40:18.814Z,1.80
2023-04-24T13:42:49.744Z,1.70
2023-04-24T13:45:25.193Z,1.65
2023-04-24T13:47:58.336Z,1.47
2023-04-24T13:50:29.573Z,1.75
2023-04-24T13:53:02.675Z,2.03
2023-04-24T13:55:36.443Z,1.85
2023-04-24T13:58:07.892Z,2.22
2023-04-24T14:00:38.724Z,1.80
2023-04-24T14:03:09.637Z,2.13
2023-04-24T14:05:40.642Z,1.60
2023-04-24T14:08:11.400Z,1.80
2023-04-24T14:10:45.267Z,1.92
2023-04-24T14:13:16.701Z,1.80
2023-04-24T14:15:47.666Z,1.90
2023-04-24T14:18:18.774Z,1.27
2023-04-24T14:20:49.739Z,2.00
2023-04-24T14:23:21.236Z,1.55
2023-04-24T14:25:54.907Z,1.55
2023-04-24T14:28:26.748Z,1.60
2023-04-24T14:30:57.993Z,1.60
2023-04-24T14:33:29.151Z,2.10
2023-04-24T14:36:00.087Z,1.90
2023-04-24T14:38:31.277Z,2.10
2023-04-24T14:41:13.880Z,2.00
2023-04-24T14:43:45.460Z,2.15
2023-04-24T14:46:17.096Z,1.98
2023-04-24T14:48:48.026Z,2.00
2023-04-24T14:51:18.898Z,1.85
2023-04-24T14:53:50.565Z,2.30
2023-04-24T14:56:24.061Z,1.70
2023-04-24T14:58:54.929Z,2.53
2023-04-24T15:01:26.459Z,2.63
2023-04-24T15:03:57.678Z,3.25
2023-04-24T15:06:28.674Z,2.90
2023-04-24T15:08:59.533Z,2.50
2023-04-24T15:11:32.975Z,2.47
2023-04-24T15:14:03.899Z,4.30
2023-04-24T15:16:36.632Z,4.43
2023-04-24T15:19:07.788Z,3.35
2023-04-24T15:21:41.394Z,3.35
2023-04-24T15:24:12.473Z,3.53
2023-04-24T15:26:45.988Z,3.13
2023-04-24T15:29:16.872Z,2.83
2023-04-24T15:31:47.956Z,3.17
2023-04-24T15:34:18.989Z,3.03
2023-04-24T15:36:49.986Z,2.70
2023-04-24T15:39:20.960Z,3.22
2023-04-24T15:41:55.117Z,3.90
2023-04-24T15:44:26.315Z,4.05
2023-04-24T15:46:57.279Z,4.03
2023-04-24T15:49:29.113Z,3.28
2023-04-24T15:51:59.982Z,3.28
2023-04-24T15:54:30.977Z,3.45
2023-04-24T15:57:04.368Z,2.47
2023-04-24T15:59:35.189Z,2.22
2023-04-24T16:02:06.981Z,2.28
2023-04-24T16:04:38.575Z,2.35
2023-04-24T16:07:09.765Z,1.80
2023-04-24T16:09:40.530Z,1.95
2023-04-24T16:12:14.992Z,1.83
2023-04-24T16:14:46.110Z,1.55
2023-04-24T16:17:16.995Z,1.98
2023-04-24T16:19:47.929Z,2.03
2023-04-24T16:22:18.878Z,1.65
2023-04-24T16:24:50.109Z,1.95
2023-04-24T16:27:23.562Z,1.80
2023-04-24T16:29:55.909Z,1.83
2023-04-24T16:32:28.174Z,1.90
2023-04-24T16:34:59.046Z,1.75
2023-04-24T16:37:29.939Z,2.00
2023-04-24T16:40:00.980Z,2.17
2023-04-24T16:42:34.432Z,2.55
2023-04-24T16:45:05.316Z,2.00
2023-04-24T16:47:36.410Z,1.50
2023-04-24T16:50:07.739Z,2.22
2023-04-24T16:52:39.082Z,1.80
2023-04-24T16:55:11.127Z,1.60
2023-04-24T16:57:44.573Z,1.52
2023-04-24T17:00:17.078Z,1.80
2023-04-24T17:02:49.828Z,1.92
2023-04-24T17:05:23.486Z,1.90
2023-04-24T17:07:54.466Z,1.77
2023-04-24T17:10:25.544Z,2.22
2023-04-24T17:13:00.193Z,1.75
2023-04-24T17:15:31.361Z,2.72
2023-04-24T17:18:02.367Z,2.42
2023-04-24T17:20:33.355Z,2.15
2023-04-24T17:23:04.110Z,3.90
2023-04-24T17:25:34.911Z,2.40
2023-04-24T17:28:12.972Z,2.58
2023-04-24T17:30:43.797Z,2.05
2023-04-24T17:33:14.930Z,2.65
2023-04-24T17:35:45.883Z,2.22
2023-04-24T17:38:16.922Z,2.17
2023-04-24T17:40:48.113Z,2.65
2023-04-24T17:43:21.602Z,2.20
2023-04-24T17:45:56.814Z,2.80
2023-04-24T17:48:28.236Z,3.20
2023-04-24T17:50:59.643Z,2.95
2023-04-24T17:53:30.913Z,3.25
2023-04-24T17:56:03.667Z,2.45
2023-04-24T17:58:37.955Z,2.78
2023-04-24T18:01:09.322Z,2.40
2023-04-24T18:03:40.650Z,2.50
2023-04-24T18:06:11.638Z,2.72
2023-04-24T18:08:45.425Z,2.60
2023-04-24T18:11:16.349Z,2.60
2023-04-24T18:13:49.969Z,2.88
2023-04-24T18:16:20.872Z,2.78
2023-04-24T18:18:51.866Z,2.45
2023-04-24T18:21:23.978Z,2.63
2023-04-24T18:23:55.485Z,3.20
2023-04-24T18:26:26.464Z,2.42
2023-04-24T18:28:59.852Z,3.25
2023-04-24T18:31:32.792Z,3.35
2023-04-24T18:34:03.959Z,2.85
2023-04-24T18:36:35.040Z,3.47
2023-04-24T18:39:05.876Z,3.28
2023-04-24T18:41:36.868Z,3.13
2023-04-24T18:44:11.971Z,3.70
2023-04-24T18:46:43.204Z,3.22
2023-04-24T18:49:14.211Z,3.50
2023-04-24T18:51:54.030Z,3.42
2023-04-24T18:54:25.492Z,4.72
2023-04-24T18:56:56.952Z,4.13
2023-04-24T18:59:30.415Z,2.88
2023-04-24T19:02:01.411Z,2.80
2023-04-24T19:04:32.864Z,2.72
2023-04-24T19:07:03.789Z,2.10
2023-04-24T19:09:34.806Z,1.83
2023-04-24T19:12:06.899Z,2.33
2023-04-24T19:14:40.341Z,1.90
2023-04-24T19:17:11.589Z,2.10
2023-04-24T19:19:42.428Z,1.73
2023-04-24T19:22:13.369Z,2.20
2023-04-24T19:24:44.476Z,1.83
2023-04-24T19:27:15.429Z,2.22
2023-04-24T19:29:48.888Z,1.85
2023-04-24T19:32:19.890Z,2.10
2023-04-24T19:34:50.926Z,3.00
2023-04-24T19:37:21.855Z,2.40
2023-04-24T19:39:52.744Z,2.20
2023-04-24T19:42:35.982Z,4.07
2023-04-24T19:45:16.970Z,1.90
2023-04-24T19:47:49.167Z,3.83
2023-04-24T19:50:20.080Z,3.25
2023-04-24T19:52:50.908Z,2.95
2023-04-24T19:55:22.360Z,2.60
2023-04-24T19:57:53.362Z,2.05
2023-04-24T20:00:27.142Z,3.08
2023-04-24T20:02:59.262Z,2.90
2023-04-24T20:05:30.501Z,2.78
2023-04-24T20:08:01.439Z,2.67
2023-04-24T20:10:32.699Z,3.92
2023-04-24T20:13:03.574Z,5.75
2023-04-24T20:15:37.120Z,4.35
2023-04-24T20:18:08.060Z,4.80
2023-04-24T20:20:40.992Z,7.13
2023-04-24T20:23:11.859Z,10.65
2023-04-24T20:25:42.759Z,9.95
2023-04-24T20:28:15.153Z,6.38
2023-04-24T20:30:49.885Z,3.83
2023-04-24T20:33:23.961Z,3.45
2023-04-24T20:35:55.970Z,3.25
2023-04-24T20:38:27.183Z,3.28
2023-04-24T20:40:58.731Z,6.35
2023-04-24T20:43:30.008Z,5.03
2023-04-24T20:46:03.979Z,4.57
2023-04-24T20:48:35.088Z,6.00
2023-04-24T20:51:05.963Z,5.30
2023-04-24T20:53:36.998Z,4.30
2023-04-24T20:56:09.111Z,5.35
2023-04-24T20:58:40.139Z,4.50
2023-04-24T21:01:13.644Z,4.88
2023-04-24T21:03:44.988Z,5.38
2023-04-24T21:06:16.461Z,4.00
2023-04-24T21:08:47.345Z,4.80
2023-04-24T21:11:18.306Z,3.42
2023-04-24T21:13:49.487Z,2.78
2023-04-24T21:16:23.452Z,2.83
2023-04-24T21:18:54.281Z,3.30
2023-04-24T21:21:25.477Z,2.80
2023-04-24T21:23:56.352Z,2.78
2023-04-24T21:26:27.226Z,2.65
2023-04-24T21:28:58.086Z,2.53
2023-04-24T21:31:31.521Z,3.05
2023-04-24T21:34:02.327Z,3.35
2023-04-24T21:36:33.345Z,3.65
2023-04-24T21:39:04.210Z,3.03
2023-04-24T21:41:35.079Z,3.33
2023-04-24T21:44:05.934Z,3.53
2023-04-24T21:46:40.374Z,3.75
2023-04-24T21:49:11.303Z,4.00
2023-04-24T21:51:42.084Z,4.03
2023-04-24T21:54:12.926Z,3.92
2023-04-24T21:56:44.477Z,3.88
2023-04-24T21:59:15.725Z,5.78
2023-04-24T22:01:49.236Z,7.13
2023-04-24T22:04:20.444Z,5.03
2023-04-24T22:06:52.253Z,4.03
2023-04-24T22:09:23.298Z,3.47
2023-04-24T22:11:54.220Z,3.15
2023-04-24T22:14:25.151Z,3.13
2023-04-24T22:16:59.150Z,3.22
2023-04-24T22:19:30.017Z,2.88
2023-04-24T22:22:00.851Z,3.42
2023-04-24T22:24:32.047Z,3.15
2023-04-24T22:27:03.273Z,3.75
2023-04-24T22:29:34.543Z,3.38
2023-04-24T22:32:08.301Z,4.35
2023-04-24T22:34:39.269Z,4.97
2023-04-24T22:37:11.032Z,4.72
2023-04-24T22:39:41.831Z,5.95
2023-04-24T22:42:12.769Z,5.03
2023-04-24T22:44:43.626Z,5.03
2023-04-24T22:47:17.616Z,5.22
2023-04-24T22:49:48.509Z,4.25
2023-04-24T22:52:19.356Z,4.25
2023-04-24T22:54:50.269Z,4.22
2023-04-24T22:57:21.561Z,3.40
2023-04-24T22:59:52.318Z,3.70
2023-04-24T23:02:26.471Z,3.92
2023-04-24T23:04:57.422Z,4.03
2023-04-24T23:07:29.344Z,4.00
2023-04-24T23:10:00.248Z,3.45
2023-04-24T23:12:31.561Z,3.40
2023-04-24T23:15:02.488Z,3.67
2023-04-24T23:17:35.863Z,3.88
2023-04-24T23:20:07.261Z,3.50
2023-04-24T23:22:38.081Z,3.63
2023-04-24T23:25:11.178Z,3.00
2023-04-24T23:27:42.079Z,3.45
2023-04-24T23:30:13.807Z,3.22
2023-04-24T23:32:47.319Z,3.08
2023-04-24T23:35:18.328Z,3.42
2023-04-24T23:37:49.246Z,2.88
2023-04-24T23:40:20.105Z,3.22
2023-04-24T23:43:03.384Z,3.47
2023-04-24T23:45:37.505Z,3.80
2023-04-24T23:48:11.154Z,3.20
2023-04-24T23:50:42.053Z,3.17
2023-04-24T23:53:13.126Z,3.15
2023-04-24T23:55:43.966Z,2.78
2023-04-24T23:58:14.766Z,3.28
